Time;durP1;ratioP1;P1;durP2;ratioP2;P2;SDS_P1;SDS_P2;PMS_P1;PMS_P2;Temp;Humidity;BMP_temperature;BMP_pressure;BME280_temperature;BME280_humidity;BME280_pressure;Samples;Min_cycle;Max_cycle;Signal;HPM_P1;HPM_P2
2022/10/01 00:01:18;;;;;;;4.78;3.22;;;;;;;12.51;100.00;100232.81;5034589;28;20091;-54
2022/10/01 00:03:46;;;;;;;7.45;3.20;;;;;;;12.46;100.00;100213.75;5036024;28;20566;-56
2022/10/01 00:06:19;;;;;;;5.90;3.08;;;;;;;12.48;100.00;100217.00;5028558;28;20552;-57
2022/10/01 00:08:48;;;;;;;4.25;2.85;;;;;;;12.45;100.00;100209.41;5032261;28;20041;-58
2022/10/01 00:11:22;;;;;;;4.45;2.75;;;;;;;12.44;100.00;100194.13;5034847;28;20038;-58
2022/10/01 00:13:51;;;;;;;5.00;2.85;;;;;;;12.42;100.00;100185.41;5039897;28;20049;-56
2022/10/01 00:16:21;;;;;;;5.15;3.08;;;;;;;12.39;100.00;100185.97;5028568;28;20049;-55
2022/10/01 00:18:49;;;;;;;5.43;3.05;;;;;;;12.39;100.00;100191.44;5015471;28;20050;-57
2022/10/01 00:21:20;;;;;;;6.80;3.15;;;;;;;12.40;100.00;100184.88;5021206;28;20554;-57
2022/10/01 00:23:54;;;;;;;4.97;2.92;;;;;;;12.42;100.00;100179.94;5034486;28;20496;-57
2022/10/01 00:26:26;;;;;;;5.78;3.10;;;;;;;12.40;100.00;100173.97;5016865;28;20045;-57
2022/10/01 00:28:56;;;;;;;4.90;2.92;;;;;;;12.46;100.00;100164.56;5031366;28;20049;-56
2022/10/01 00:31:25;;;;;;;6.32;3.33;;;;;;;12.42;100.00;100166.28;5034515;28;20491;-58
2022/10/01 00:33:53;;;;;;;5.78;2.85;;;;;;;12.45;100.00;100174.69;5017565;28;20048;-58
2022/10/01 00:36:21;;;;;;;6.03;3.47;;;;;;;12.43;100.00;100165.16;5033584;28;20107;-57
2022/10/01 00:38:49;;;;;;;5.68;3.10;;;;;;;12.46;100.00;100153.63;5027371;28;20041;-58
2022/10/01 00:41:17;;;;;;;6.20;3.20;;;;;;;12.45;100.00;100147.34;5040880;28;20042;-58
2022/10/01 00:43:54;;;;;;;4.93;2.80;;;;;;;12.42;100.00;100142.50;5035301;28;20056;-57
2022/10/01 00:46:42;;;;;;;4.75;3.00;;;;;;;12.44;100.00;100134.81;5006105;28;20049;-59
2022/10/01 00:49:13;;;;;;;5.47;3.20;;;;;;;12.41;100.00;100156.44;5033021;28;20073;-59
2022/10/01 00:51:51;;;;;;;4.38;2.67;;;;;;;12.53;100.00;100148.59;5044730;28;20057;-59
2022/10/01 00:54:25;;;;;;;5.35;2.90;;;;;;;12.48;100.00;100151.41;5024209;28;20053;-58
2022/10/01 00:56:55;;;;;;;5.30;2.55;;;;;;;12.47;100.00;100142.41;5019885;28;20038;-59
2022/10/01 00:59:22;;;;;;;7.10;3.35;;;;;;;12.45;100.00;100141.09;5030025;28;20496;-56
2022/10/01 01:01:50;;;;;;;5.13;3.10;;;;;;;12.49;100.00;100137.47;5050036;28;20048;-58
2022/10/01 01:04:18;;;;;;;5.47;3.00;;;;;;;12.46;100.00;100126.31;5045253;28;20108;-58
2022/10/01 01:06:56;;;;;;;5.65;2.90;;;;;;;12.35;100.00;100131.94;5031830;28;20044;-58
2022/10/01 01:09:32;;;;;;;4.20;2.63;;;;;;;12.43;100.00;100132.38;5031905;28;20061;-59
2022/10/01 01:12:18;;;;;;;7.40;2.90;;;;;;;12.44;100.00;100120.34;5041837;28;20052;-58
2022/10/01 01:15:06;;;;;;;5.45;2.88;;;;;;;12.44;100.00;100117.63;5044046;28;20046;-58
2022/10/01 01:17:41;;;;;;;5.72;2.80;;;;;;;12.42;100.00;100109.72;5027543;28;20149;-59
2022/10/01 01:20:23;;;;;;;4.88;2.55;;;;;;;12.39;100.00;100098.56;5034609;28;20064;-58
2022/10/01 01:23:05;;;;;;;4.47;2.53;;;;;;;12.36;100.00;100095.34;5028548;28;20416;-59
2022/10/01 01:25:46;;;;;;;5.50;2.40;;;;;;;12.48;100.00;100042.97;5027277;28;20054;-58
2022/10/01 01:28:20;;;;;;;5.30;2.95;;;;;;;12.30;100.00;99998.16;5032856;28;20046;-59
2022/10/01 01:30:50;;;;;;;5.32;2.70;;;;;;;12.18;100.00;99995.09;5033068;28;20076;-59
2022/10/01 01:33:20;;;;;;;4.90;2.50;;;;;;;12.17;100.00;100009.06;5033433;28;20116;-57
2022/10/01 01:35:52;;;;;;;6.05;2.60;;;;;;;12.18;100.00;100036.06;5030335;28;20488;-59
2022/10/01 01:38:29;;;;;;;3.60;2.30;;;;;;;12.24;100.00;100043.09;5029633;28;20053;-60
2022/10/01 01:40:59;;;;;;;3.15;2.17;;;;;;;12.28;100.00;100046.81;5032703;28;20129;-56
2022/10/01 01:43:32;;;;;;;3.15;2.15;;;;;;;12.30;100.00;100052.81;5032908;28;20080;-56
2022/10/01 01:46:03;;;;;;;3.45;2.20;;;;;;;12.27;100.00;100047.13;5032608;28;20037;-57
2022/10/01 01:48:32;;;;;;;4.65;2.42;;;;;;;12.25;100.00;100033.78;5018637;28;20562;-54
2022/10/01 01:51:11;;;;;;;3.60;2.20;;;;;;;12.27;100.00;100038.94;5026494;28;20042;-57
2022/10/01 01:53:40;;;;;;;2.85;2.00;;;;;;;12.33;100.00;100032.28;5033857;28;20045;-55
2022/10/01 01:56:08;;;;;;;2.75;2.13;;;;;;;12.33;100.00;100019.41;5030641;28;20046;-57
2022/10/01 01:58:37;;;;;;;2.58;2.20;;;;;;;12.31;100.00;100013.47;5025671;28;20045;-58
2022/10/01 02:01:05;;;;;;;2.88;2.05;;;;;;;12.24;100.00;100009.47;5013814;28;20038;-59
2022/10/01 02:03:33;;;;;;;2.95;2.13;;;;;;;12.25;100.00;100006.47;5028906;28;20496;-56
2022/10/01 02:06:05;;;;;;;2.55;1.98;;;;;;;12.24;100.00;100004.00;5031443;28;20048;-59
2022/10/01 02:08:45;;;;;;;2.33;1.92;;;;;;;12.34;100.00;99988.28;5048758;28;20044;-59
2022/10/01 02:11:15;;;;;;;3.30;1.95;;;;;;;12.30;100.00;99998.16;5023000;28;20034;-58
2022/10/01 02:14:10;;;;;;;2.05;1.80;;;;;;;12.31;100.00;99997.09;5020112;28;20037;-61
2022/10/01 02:16:48;;;;;;;2.47;1.88;;;;;;;12.27;100.00;99987.84;5020173;28;20054;-60
2022/10/01 02:19:35;;;;;;;2.40;1.85;;;;;;;12.24;100.00;99988.47;5032348;28;20053;-60
2022/10/01 02:22:31;;;;;;;2.42;1.70;;;;;;;12.21;100.00;99980.03;5032259;28;20404;-61
2022/10/01 02:25:01;;;;;;;1.92;1.48;;;;;;;12.25;100.00;99972.88;5015915;28;20523;-58
2022/10/01 02:27:36;;;;;;;2.90;2.00;;;;;;;12.23;100.00;99975.09;5031024;28;20042;-60
2022/10/01 02:30:07;;;;;;;1.90;1.60;;;;;;;12.38;100.00;99965.81;5026947;28;20053;-60
2022/10/01 02:32:39;;;;;;;3.42;1.77;;;;;;;12.32;100.00;99968.63;5031615;28;20047;-59
2022/10/01 02:35:09;;;;;;;3.42;1.77;;;;;;;12.21;100.00;99953.53;5030790;28;20045;-60
2022/10/01 02:37:39;;;;;;;2.78;1.60;;;;;;;12.22;100.00;99960.63;5030846;28;20381;-58
2022/10/01 02:40:13;;;;;;;2.67;1.85;;;;;;;12.15;100.00;99954.75;5032178;28;20030;-57
2022/10/01 02:42:42;;;;;;;1.98;1.80;;;;;;;12.11;100.00;99946.34;5031943;28;20045;-58
2022/10/01 02:45:11;;;;;;;2.17;1.60;;;;;;;12.26;100.00;99945.25;5048325;28;20129;-60
2022/10/01 02:47:46;;;;;;;1.50;1.40;;;;;;;12.22;100.00;99941.53;5027962;28;20042;-55
2022/10/01 02:50:14;;;;;;;1.70;1.55;;;;;;;12.17;100.00;99944.34;5014765;28;20049;-55
2022/10/01 02:53:06;;;;;;;3.15;1.48;;;;;;;12.14;100.00;99942.19;5021310;28;21978;-56
2022/10/01 02:55:36;;;;;;;1.40;1.30;;;;;;;12.15;100.00;99941.09;5033045;28;20058;-59
2022/10/01 02:58:04;;;;;;;1.88;1.20;;;;;;;12.09;100.00;99931.38;5014649;28;20096;-58
2022/10/01 03:00:32;;;;;;;1.50;1.40;;;;;;;12.13;100.00;99937.84;5047442;28;20104;-59
2022/10/01 03:02:59;;;;;;;1.40;1.27;;;;;;;12.06;100.00;99951.09;5039548;28;20109;-60
2022/10/01 03:05:27;;;;;;;2.00;1.50;;;;;;;12.06;100.00;99956.53;5034168;28;20476;-58
2022/10/01 03:07:55;;;;;;;2.60;1.40;;;;;;;12.12;100.00;99941.69;5028896;28;20052;-60
2022/10/01 03:10:23;;;;;;;2.03;1.30;;;;;;;12.17;100.00;99944.34;5021989;28;20053;-59
2022/10/01 03:12:50;;;;;;;1.15;1.05;;;;;;;12.10;100.00;99935.72;5035146;28;20096;-60
2022/10/01 03:15:19;;;;;;;1.35;1.25;;;;;;;12.11;100.00;99948.25;5029085;28;20480;-56
2022/10/01 03:17:51;;;;;;;4.00;1.38;;;;;;;12.05;100.00;99941.25;5036513;28;20068;-57
2022/10/01 03:20:18;;;;;;;1.50;1.40;;;;;;;12.06;100.00;99938.22;5036771;28;20046;-60
2022/10/01 03:22:46;;;;;;;2.20;1.50;;;;;;;12.04;100.00;99940.44;5035561;28;20099;-59
2022/10/01 03:25:15;;;;;;;2.15;1.35;;;;;;;12.02;100.00;99942.66;5022552;28;20045;-56
2022/10/01 03:27:43;;;;;;;2.78;1.30;;;;;;;12.09;100.00;99925.91;5008311;28;20040;-56
2022/10/01 03:30:11;;;;;;;1.30;1.17;;;;;;;12.10;100.00;99924.81;5029256;28;20045;-60
2022/10/01 03:32:39;;;;;;;1.13;1.08;;;;;;;12.07;100.00;99942.56;5036378;28;20403;-57
2022/10/01 03:35:07;;;;;;;3.35;1.20;;;;;;;12.09;100.00;99936.81;5035780;28;20099;-58
2022/10/01 03:37:34;;;;;;;1.20;1.10;;;;;;;12.10;100.00;99933.00;5050728;28;20045;-59
2022/10/01 03:40:02;;;;;;;1.75;1.02;;;;;;;12.11;100.00;99926.41;5030860;28;20041;-56
2022/10/01 03:42:30;;;;;;;1.45;1.30;;;;;;;12.14;100.00;99934.81;5051369;28;20041;-55
2022/10/01 03:44:57;;;;;;;2.70;1.35;;;;;;;12.20;100.00;99938.28;5034833;28;20034;-55
2022/10/01 03:47:25;;;;;;;2.53;1.10;;;;;;;12.14;100.00;99939.47;5017536;28;20044;-58
2022/10/01 03:49:53;;;;;;;1.58;1.30;;;;;;;12.18;100.00;99940.50;5036512;28;20117;-57
2022/10/01 03:52:20;;;;;;;1.20;1.10;;;;;;;12.19;100.00;99933.09;5031504;28;20049;-58
2022/10/01 03:54:48;;;;;;;1.40;1.27;;;;;;;12.13;100.00;99943.31;5022389;28;20091;-59
2022/10/01 03:57:16;;;;;;;1.33;0.93;;;;;;;12.09;100.00;99937.63;5026379;28;20122;-60
2022/10/01 03:59:43;;;;;;;1.20;1.10;;;;;;;12.16;100.00;99942.72;5034667;28;20041;-57
2022/10/01 04:02:11;;;;;;;1.23;1.13;;;;;;;12.15;100.00;99935.63;5035178;28;20068;-60
2022/10/01 04:04:38;;;;;;;1.00;1.00;;;;;;;12.13;100.00;99946.03;5023599;28;20049;-59
2022/10/01 04:07:06;;;;;;;1.30;1.20;;;;;;;12.13;100.00;99938.66;5046414;28;20062;-59
2022/10/01 04:09:36;;;;;;;2.53;1.10;;;;;;;12.17;100.00;99938.88;5027170;28;20504;-57
2022/10/01 04:12:04;;;;;;;1.80;1.23;;;;;;;12.22;100.00;99940.69;5032969;28;20108;-60
2022/10/01 04:14:32;;;;;;;1.55;1.05;;;;;;;12.17;100.00;99948.97;5034460;28;20515;-58
2022/10/01 04:16:59;;;;;;;2.42;1.33;;;;;;;12.13;100.00;99937.84;5016175;28;20111;-58
2022/10/01 04:19:27;;;;;;;1.20;1.10;;;;;;;12.14;100.00;99934.00;5028121;28;20049;-59
2022/10/01 04:21:55;;;;;;;1.60;1.48;;;;;;;12.17;100.00;99938.03;5032994;28;20050;-59
2022/10/01 04:24:22;;;;;;;0.85;0.85;;;;;;;12.15;100.00;99941.09;5026869;28;20492;-59
2022/10/01 04:26:50;;;;;;;1.23;1.13;;;;;;;12.18;100.00;99945.94;5027902;28;20518;-59
2022/10/01 04:29:18;;;;;;;1.23;1.13;;;;;;;12.20;100.00;99949.19;5034883;28;20053;-59
2022/10/01 04:31:46;;;;;;;1.10;1.00;;;;;;;12.19;100.00;99944.81;5035223;28;20477;-58
2022/10/01 04:34:13;;;;;;;1.45;1.30;;;;;;;12.21;100.00;99950.81;5031748;28;20091;-58
2022/10/01 04:36:41;;;;;;;2.58;1.10;;;;;;;12.22;100.00;99948.88;5032947;28;20047;-58
2022/10/01 04:39:09;;;;;;;1.52;1.15;;;;;;;12.19;100.00;99953.03;5032749;28;20057;-58
2022/10/01 04:41:37;;;;;;;1.52;1.23;;;;;;;12.24;100.00;99961.16;5026069;28;20046;-56
2022/10/01 04:44:05;;;;;;;1.00;0.93;;;;;;;12.23;100.00;99964.97;5027523;28;20095;-58
2022/10/01 04:46:33;;;;;;;1.35;1.10;;;;;;;12.15;100.00;99966.47;5033820;28;20041;-56
2022/10/01 04:49:00;;;;;;;1.80;1.10;;;;;;;12.13;100.00;99970.63;5020125;28;20038;-58
2022/10/01 04:51:28;;;;;;;1.17;1.00;;;;;;;12.09;100.00;99973.13;5034171;28;20373;-55
2022/10/01 04:53:56;;;;;;;2.88;1.70;;;;;;;12.13;100.00;99965.16;5032046;28;20519;-58
2022/10/01 04:56:23;;;;;;;1.40;1.30;;;;;;;12.20;100.00;99981.97;5029510;28;20571;-56
2022/10/01 04:58:51;;;;;;;1.60;1.50;;;;;;;12.23;100.00;99983.28;5050163;28;20045;-55
2022/10/01 05:01:18;;;;;;;1.52;1.17;;;;;;;12.27;100.00;99987.06;5023018;28;20536;-59
2022/10/01 05:03:46;;;;;;;1.13;1.00;;;;;;;12.23;100.00;99986.81;5028761;28;20069;-55
2022/10/01 05:06:14;;;;;;;1.75;1.20;;;;;;;12.36;100.00;99990.69;5036601;28;20057;-60
2022/10/01 05:08:41;;;;;;;2.63;1.15;;;;;;;12.39;100.00;99992.00;5047520;28;20045;-59
2022/10/01 05:11:09;;;;;;;1.20;1.10;;;;;;;12.33;100.00;99981.19;5052312;28;20480;-56
2022/10/01 05:13:36;;;;;;;1.10;1.00;;;;;;;12.30;100.00;99997.38;5031447;28;20045;-59
2022/10/01 05:16:04;;;;;;;6.43;1.10;;;;;;;12.30;100.00;99991.91;5017105;28;20447;-57
2022/10/01 05:18:32;;;;;;;2.55;1.00;;;;;;;12.27;100.00;99990.59;5046183;28;20092;-59
2022/10/01 05:21:04;;;;;;;2.00;0.90;;;;;;;12.29;100.00;100002.03;5045558;28;20045;-57
2022/10/01 05:23:32;;;;;;;1.10;1.00;;;;;;;12.27;100.00;100004.25;5031618;28;20041;-58
2022/10/01 05:26:03;;;;;;;1.92;1.10;;;;;;;12.26;100.00;100005.34;5021685;28;20042;-55
2022/10/01 05:28:31;;;;;;;1.45;1.00;;;;;;;12.26;100.00;100008.06;5028030;28;20117;-59
2022/10/01 05:31:02;;;;;;;1.30;1.20;;;;;;;12.27;100.00;100008.91;5031665;28;20160;-58
2022/10/01 05:33:31;;;;;;;0.95;0.90;;;;;;;12.26;100.00;100018.19;5032785;28;20506;-58
2022/10/01 05:35:58;;;;;;;1.63;1.10;;;;;;;12.27;100.00;100015.16;5030927;28;20041;-59
2022/10/01 05:38:26;;;;;;;1.50;1.15;;;;;;;12.27;100.00;100012.44;5026312;28;20041;-57
2022/10/01 05:40:53;;;;;;;3.15;1.27;;;;;;;12.27;100.00;100028.81;5031449;28;20033;-57
2022/10/01 05:43:21;;;;;;;1.58;1.48;;;;;;;12.29;100.00;100031.25;5041367;28;20041;-59
2022/10/01 05:45:49;;;;;;;2.05;1.20;;;;;;;12.29;100.00;100040.28;5029667;28;20492;-59
2022/10/01 05:48:17;;;;;;;3.00;1.20;;;;;;;12.31;100.00;100042.69;5028611;28;20042;-55
2022/10/01 05:50:45;;;;;;;2.40;1.23;;;;;;;12.29;100.00;100043.00;5024366;28;20042;-59
2022/10/01 05:53:14;;;;;;;2.30;1.30;;;;;;;12.30;100.00;100052.81;5022292;28;20038;-59
2022/10/01 05:55:42;;;;;;;3.55;1.38;;;;;;;12.31;100.00;100059.91;5031591;28;20060;-58
2022/10/01 05:58:12;;;;;;;1.60;1.20;;;;;;;12.30;100.00;100058.25;5032467;28;20491;-57
2022/10/01 06:00:41;;;;;;;3.40;1.50;;;;;;;12.31;100.00;100062.63;5033258;28;20038;-58
2022/10/01 06:03:11;;;;;;;3.80;1.55;;;;;;;12.34;100.00;100059.31;5023245;28;20107;-59
2022/10/01 06:05:39;;;;;;;2.38;1.42;;;;;;;12.34;100.00;100059.31;5031864;28;20049;-58
2022/10/01 06:08:10;;;;;;;2.28;1.38;;;;;;;12.34;100.00;100062.03;5014896;28;20045;-59
2022/10/01 06:10:38;;;;;;;5.38;1.90;;;;;;;12.39;100.00;100060.31;5032994;28;20039;-59
2022/10/01 06:13:06;;;;;;;3.78;1.95;;;;;;;12.38;100.00;100064.16;5033624;28;20447;-58
2022/10/01 06:15:38;;;;;;;3.83;1.90;;;;;;;12.37;100.00;100074.28;5022203;28;20046;-52
2022/10/01 06:18:10;;;;;;;5.55;2.00;;;;;;;12.38;100.00;100070.44;5026706;28;20057;-55
2022/10/01 06:20:39;;;;;;;3.97;2.22;;;;;;;12.36;100.00;100072.66;5031936;28;20056;-56
2022/10/01 06:23:11;;;;;;;4.45;2.30;;;;;;;12.36;100.00;100072.66;5015671;28;20108;-51
2022/10/01 06:25:40;;;;;;;5.80;2.50;;;;;;;12.36;100.00;100078.94;5031636;28;20042;-56
2022/10/01 06:28:10;;;;;;;4.63;2.30;;;;;;;12.36;100.00;100078.94;5012545;28;20539;-56
2022/10/01 06:30:39;;;;;;;3.97;2.35;;;;;;;12.36;100.00;100089.88;5033322;28;20041;-56
2022/10/01 06:33:09;;;;;;;5.82;2.20;;;;;;;12.38;100.00;100096.94;5031434;28;20042;-53
2022/10/01 06:35:41;;;;;;;3.92;2.20;;;;;;;12.39;100.00;100082.16;5029371;28;20042;-58
2022/10/01 06:38:09;;;;;;;7.80;3.80;;;;;;;12.40;100.00;100089.25;5030394;28;20037;-56
2022/10/01 06:40:38;;;;;;;6.50;2.80;;;;;;;12.40;100.00;100089.25;5024375;28;20049;-56
2022/10/01 06:43:07;;;;;;;8.13;3.90;;;;;;;12.41;100.00;100086.25;5032101;28;20045;-54
2022/10/01 06:45:38;;;;;;;5.25;2.97;;;;;;;12.42;100.00;100087.84;5036254;28;20041;-55
2022/10/01 06:48:05;;;;;;;7.68;3.03;;;;;;;12.44;100.00;100095.75;5038055;28;20046;-54
2022/10/01 06:50:34;;;;;;;5.60;3.10;;;;;;;12.44;100.00;100085.63;5035762;28;20124;-57
2022/10/01 06:53:02;;;;;;;6.13;2.90;;;;;;;12.45;100.00;100092.72;5027535;28;20136;-55
2022/10/01 06:55:32;;;;;;;6.68;3.22;;;;;;;12.45;100.00;100087.25;5015432;28;20045;-56
2022/10/01 06:58:02;;;;;;;7.32;3.88;;;;;;;12.45;100.00;100087.25;5048413;28;20033;-56
2022/10/01 07:00:32;;;;;;;7.65;3.45;;;;;;;12.47;100.00;100097.91;5022337;28;20076;-58
2022/10/01 07:03:00;;;;;;;7.40;3.20;;;;;;;12.47;100.00;100100.63;5048298;28;20041;-56
2022/10/01 07:05:28;;;;;;;10.50;3.30;;;;;;;12.49;100.00;100107.41;5022469;28;20054;-54
2022/10/01 07:07:55;;;;;;;6.25;3.30;;;;;;;12.52;100.00;100108.72;5018316;28;20049;-55
2022/10/01 07:10:24;;;;;;;4.28;2.97;;;;;;;12.55;100.00;100113.59;5031950;28;20044;-55
2022/10/01 07:12:51;;;;;;;7.10;3.50;;;;;;;12.56;100.00;100121.50;5019086;28;20048;-54
2022/10/01 07:15:24;;;;;;;8.15;4.10;;;;;;;12.59;100.00;100122.81;5018384;28;20049;-54
2022/10/01 07:17:52;;;;;;;5.88;3.40;;;;;;;12.64;100.00;100117.28;5024484;28;20492;-57
2022/10/01 07:20:20;;;;;;;4.78;3.17;;;;;;;12.66;100.00;100128.72;5029674;28;20037;-58
2022/10/01 07:22:54;;;;;;;9.15;3.90;;;;;;;12.71;100.00;100125.09;5023660;28;20045;-55
2022/10/01 07:25:23;;;;;;;14.57;4.55;;;;;;;12.74;100.00;100122.56;5024597;28;20070;-54
2022/10/01 07:27:59;;;;;;;8.07;3.83;;;;;;;12.77;100.00;100127.44;5031481;28;20037;-58
2022/10/01 07:30:28;;;;;;;14.05;5.60;;;;;;;12.82;100.00;100128.44;5040051;28;20046;-57
2022/10/01 07:32:56;;;;;;;8.43;4.10;;;;;;;12.87;100.00;100139.28;5030011;28;20076;-55
2022/10/01 07:35:24;;;;;;;7.47;3.65;;;;;;;12.90;100.00;100141.44;5032847;28;20132;-58
2022/10/01 07:37:54;;;;;;;14.43;4.72;;;;;;;12.93;100.00;100138.91;5030470;28;20061;-55
2022/10/01 07:40:22;;;;;;;7.30;3.75;;;;;;;12.95;100.00;100139.44;5034306;28;20491;-58
2022/10/01 07:42:54;;;;;;;9.15;4.00;;;;;;;12.99;100.00;100145.94;5034244;28;20049;-58
2022/10/01 07:45:22;;;;;;;9.40;3.58;;;;;;;13.02;100.00;100149.97;5034011;28;20049;-57
2022/10/01 07:47:57;;;;;;;10.15;3.83;;;;;;;13.03;100.00;100150.78;5034935;28;20569;-58
2022/10/01 07:50:25;;;;;;;10.95;4.45;;;;;;;13.06;100.00;100153.75;5031822;28;20057;-55
2022/10/01 07:52:55;;;;;;;13.45;4.13;;;;;;;13.06;100.00;100147.44;5029363;28;20037;-58
2022/10/01 07:55:25;;;;;;;10.50;4.00;;;;;;;13.06;100.00;100161.13;5033329;28;20034;-58
2022/10/01 07:57:54;;;;;;;7.15;3.45;;;;;;;13.04;100.00;100175.09;5034751;28;20492;-60
2022/10/01 08:00:24;;;;;;;8.00;4.10;;;;;;;13.04;100.00;100171.56;5032666;28;20048;-58
2022/10/01 08:02:54;;;;;;;12.98;4.45;;;;;;;13.02;100.00;100173.78;5032240;28;20063;-60
2022/10/01 08:05:28;;;;;;;7.88;4.00;;;;;;;13.02;100.00;100177.31;5024379;28;20096;-59
2022/10/01 08:08:00;;;;;;;8.52;3.88;;;;;;;13.02;100.00;100182.78;5016486;28;20038;-57
2022/10/01 08:10:29;;;;;;;8.93;4.18;;;;;;;13.05;100.00;100187.66;5027787;28;20124;-57
2022/10/01 08:13:13;;;;;;;9.15;4.63;;;;;;;13.07;100.00;100184.63;5031156;28;20045;-57
2022/10/01 08:15:42;;;;;;;7.97;3.85;;;;;;;13.06;100.00;100185.72;5013059;28;20069;-55
2022/10/01 08:18:10;;;;;;;7.25;3.85;;;;;;;13.07;100.00;100193.66;5032301;28;20154;-52
2022/10/01 08:20:39;;;;;;;16.60;5.75;;;;;;;13.12;100.00;100199.03;5031567;28;20046;-55
2022/10/01 08:23:09;;;;;;;8.25;3.50;;;;;;;13.23;100.00;100199.66;5015248;28;20108;-53
2022/10/01 08:25:39;;;;;;;8.18;3.75;;;;;;;13.25;100.00;100205.63;5031961;28;20116;-56
2022/10/01 08:28:07;;;;;;;7.68;3.70;;;;;;;13.24;100.00;100219.63;5033627;28;20044;-56
2022/10/01 08:30:38;;;;;;;7.20;3.60;;;;;;;13.19;100.00;100215.84;5031104;28;20511;-55
2022/10/01 08:33:08;;;;;;;5.10;2.65;;;;;;;13.15;100.00;100220.28;5026814;28;20408;-54
2022/10/01 08:35:39;;;;;;;10.95;3.92;;;;;;;13.16;100.00;100235.63;5014469;28;20064;-54
2022/10/01 08:38:07;;;;;;;8.20;3.25;;;;;;;13.14;100.00;100234.28;5023096;28;20042;-54
2022/10/01 08:40:46;;;;;;;5.20;2.83;;;;;;;13.10;100.00;100236.78;5025665;28;20461;-55
2022/10/01 08:43:37;;;;;;;10.57;3.83;;;;;;;13.10;100.00;100233.25;5031042;28;20048;-53
2022/10/01 08:46:16;;;;;;;6.78;3.30;;;;;;;13.10;100.00;100231.31;5015824;28;20049;-52
2022/10/01 08:49:01;;;;;;;6.97;3.20;;;;;;;13.09;100.00;100226.97;5032050;28;20045;-54
2022/10/01 08:52:03;;;;;;;9.02;3.80;;;;;;;13.12;100.00;100226.38;5020646;28;20510;-55
2022/10/01 08:54:38;;;;;;;6.03;3.10;;;;;;;13.11;100.00;100219.28;5024416;28;20428;-56
2022/10/01 08:57:12;;;;;;;8.43;4.00;;;;;;;13.14;100.00;100221.41;5014069;28;20516;-55
2022/10/01 08:59:57;;;;;;;9.30;4.20;;;;;;;13.19;100.00;100232.28;5027980;28;20038;-54
2022/10/01 09:02:26;;;;;;;9.25;3.92;;;;;;;13.22;100.00;100231.66;5025717;28;20183;-56
2022/10/01 09:05:19;;;;;;;9.80;3.83;;;;;;;13.24;100.00;100234.09;5032967;28;20041;-56
2022/10/01 09:07:56;;;;;;;9.73;4.53;;;;;;;13.29;100.00;100230.50;5032240;28;20103;-57
2022/10/01 09:10:31;;;;;;;8.32;5.00;;;;;;;13.33;100.00;100237.81;5031965;28;20042;-55
2022/10/01 09:13:38;;;;;;;8.02;4.47;;;;;;;13.40;100.00;100238.22;5018841;28;20480;-55
2022/10/01 09:16:08;;;;;;;11.63;5.55;;;;;;;13.50;100.00;100242.72;5034208;28;20102;-57
2022/10/01 09:18:54;;;;;;;13.38;7.63;;;;;;;13.55;100.00;100250.81;5027002;28;20057;-56
2022/10/01 09:21:33;;;;;;;7.63;4.13;;;;;;;13.60;100.00;100250.72;5034909;28;20049;-55
2022/10/01 09:24:14;;;;;;;10.07;4.40;;;;;;;13.64;100.00;100259.97;5026200;28;20037;-58
2022/10/01 09:26:50;;;;;;;8.82;4.18;;;;;;;13.70;100.00;100259.88;5042733;28;20059;-55
2022/10/01 09:29:31;;;;;;;7.47;3.78;;;;;;;13.71;100.00;100265.06;5043960;28;20055;-56
2022/10/01 09:32:02;;;;;;;8.98;4.10;;;;;;;13.76;100.00;100262.22;5030553;28;20045;-55
2022/10/01 09:34:39;;;;;;;8.88;4.18;;;;;;;13.78;100.00;100272.84;5034396;28;20041;-54
2022/10/01 09:37:17;;;;;;;13.77;4.88;;;;;;;13.84;100.00;100279.84;5037780;28;20052;-60
2022/10/01 09:39:58;;;;;;;13.95;4.28;;;;;;;13.88;100.00;100269.94;5045856;28;20415;-58
2022/10/01 09:42:27;;;;;;;11.50;3.75;;;;;;;13.88;100.00;100275.41;5032477;28;20049;-55
2022/10/01 09:44:56;;;;;;;11.98;3.70;;;;;;;13.90;100.00;100273.16;5028286;28;20407;-57
2022/10/01 09:47:24;;;;;;;10.90;3.78;;;;;;;13.92;100.00;100275.59;5020814;28;20447;-55
2022/10/01 09:49:52;;;;;;;11.82;3.63;;;;;;;13.96;100.00;100271.16;5032939;28;20447;-56
2022/10/01 09:52:33;;;;;;;12.75;4.20;;;;;;;14.01;100.00;100273.78;5034062;28;20523;-55
2022/10/01 09:55:19;;;;;;;12.98;3.95;;;;;;;14.06;100.00;100285.44;5024927;28;20128;-58
2022/10/01 09:58:11;;;;;;;11.45;3.28;;;;;;;14.13;100.00;100290.50;5016320;28;20489;-56
2022/10/01 10:00:40;;;;;;;16.38;4.00;;;;;;;14.21;100.00;100280.75;5025402;28;20111;-55
2022/10/01 10:03:07;;;;;;;11.57;4.03;;;;;;;14.27;100.00;100288.56;5031262;28;20053;-58
2022/10/01 10:05:48;;;;;;;14.02;3.20;;;;;;;14.32;100.00;100289.59;5032983;28;20065;-54
2022/10/01 10:08:33;;;;;;;12.90;4.03;;;;;;;14.34;100.00;100288.19;5031824;28;20488;-57
2022/10/01 10:11:05;;;;;;;14.98;3.78;;;;;;;14.38;100.00;100291.09;5027389;28;20046;-56
2022/10/01 10:13:37;;;;;;;17.15;3.72;;;;;;;14.40;100.00;100292.41;5025651;28;20050;-54
2022/10/01 10:16:09;;;;;;;11.02;3.20;;;;;;;14.40;100.00;100291.59;5025154;28;20091;-54
2022/10/01 10:18:39;;;;;;;13.43;3.88;;;;;;;14.38;100.00;100291.94;5032351;28;20064;-56
2022/10/01 10:21:15;;;;;;;14.38;3.60;;;;;;;14.39;100.00;100296.28;5032219;28;20554;-54
2022/10/01 10:23:52;;;;;;;11.68;3.17;;;;;;;14.33;100.00;100302.97;5023442;28;20045;-55
2022/10/01 10:26:36;;;;;;;13.63;3.60;;;;;;;14.36;100.00;100318.84;5024667;28;20048;-59
2022/10/01 10:29:08;;;;;;;12.40;3.37;;;;;;;14.40;100.00;100311.59;5019384;28;20074;-54
2022/10/01 10:31:43;;;;;;;13.15;3.42;;;;;;;14.46;100.00;100315.88;5030135;28;20033;-56
2022/10/01 10:34:16;;;;;;;15.13;3.50;;;;;;;14.55;100.00;100315.16;5021509;28;20040;-58
2022/10/01 10:36:45;;;;;;;17.35;4.05;;;;;;;14.64;100.00;100324.28;5025969;28;20053;-56
2022/10/01 10:39:19;;;;;;;16.20;3.55;;;;;;;14.72;100.00;100334.56;5032599;28;20054;-56
2022/10/01 10:41:48;;;;;;;13.38;3.28;;;;;;;14.75;100.00;100342.16;5029855;28;20046;-55
2022/10/01 10:44:20;;;;;;;17.67;3.80;;;;;;;14.78;100.00;100336.06;5025930;28;20103;-58
2022/10/01 10:46:49;;;;;;;14.90;3.85;;;;;;;14.82;100.00;100342.56;5012970;28;20050;-56
2022/10/01 10:49:25;;;;;;;14.70;4.45;;;;;;;14.90;100.00;100347.28;5008055;28;20042;-56
2022/10/01 10:51:54;;;;;;;15.77;4.10;;;;;;;14.96;100.00;100355.41;5028147;28;20064;-55
2022/10/01 10:54:26;;;;;;;13.50;3.50;;;;;;;14.97;100.00;100366.09;5017619;28;20153;-58
2022/10/01 10:57:10;;;;;;;18.52;3.88;;;;;;;14.91;100.00;100359.91;5022643;28;20050;-57
2022/10/01 10:59:37;;;;;;;16.58;3.58;;;;;;;14.80;100.00;100366.72;5028259;28;20455;-56
2022/10/01 11:02:06;;;;;;;15.88;3.65;;;;;;;14.76;100.00;100370.38;5013184;28;20412;-59
2022/10/01 11:04:43;;;;;;;18.25;3.55;;;;;;;14.79;100.00;100375.25;5025473;28;20069;-58
2022/10/01 11:07:13;;;;;;;18.02;4.18;;;;;;;14.82;100.00;100375.47;5021724;28;20050;-59
2022/10/01 11:09:44;;;;;;;12.07;3.50;;;;;;;14.85;100.00;100374.03;5026037;28;20042;-58
2022/10/01 11:12:46;;;;;;;14.45;3.38;;;;;;;14.91;100.00;100384.59;5023876;28;20040;-55
2022/10/01 11:15:29;;;;;;;14.35;3.63;;;;;;;14.98;100.00;100399.81;5014227;28;20480;-55
2022/10/01 11:18:10;;;;;;;18.90;3.88;;;;;;;15.08;100.00;100394.91;5017489;28;20054;-58
2022/10/01 11:20:59;;;;;;;14.32;3.70;;;;;;;15.12;100.00;100392.34;5017279;28;20489;-59
2022/10/01 11:23:43;;;;;;;11.80;2.90;;;;;;;15.10;100.00;100408.31;5016940;28;20049;-55
2022/10/01 11:26:27;;;;;;;14.77;3.70;;;;;;;15.09;100.00;100412.19;5014174;28;20041;-53
2022/10/01 11:29:16;;;;;;;16.25;4.13;;;;;;;15.09;100.00;100412.19;5036354;28;20050;-55
2022/10/01 11:32:04;;;;;;;17.83;3.65;;;;;;;15.11;99.92;100420.94;5035808;28;20496;-56
2022/10/01 11:34:50;;;;;;;16.10;4.22;;;;;;;15.15;100.00;100410.94;5025242;28;20395;-57
2022/10/01 11:37:36;;;;;;;17.77;3.72;;;;;;;15.21;98.80;100420.69;5036466;28;20041;-59
2022/10/01 11:40:26;;;;;;;19.02;3.92;;;;;;;15.33;98.22;100417.41;5035574;28;20037;-58